Terminal Aerodrome Forecast
Issued by NWS

Home | Current Version | Previous Version | Text Only | Print | Product List | Glossary Off
Versions: 1 2 3 4 5 6 7 8 9 10 11 12 13 14 15

000
FTUS42 KMHX 270535
TAFISO
TAF
KISO 270535Z 2706/2806 19008KT P6SM SCT050 BKN150
     FM270900 20008KT 6SM -RA BR OVC015
     FM271200 24010KT 4SM -RA BR OVC008
     FM271500 36012G18KT 3SM -RA BR OVC007
     FM280100 36008KT P6SM OVC015
      AMD LTD TO CLD VIS AND WIND=

USA.gov is the U.S. government's official web portal to all federal, state and local government web resources and services.